createdAt,value
2023-09-27T00:00:15.027Z,42.95
2023-09-27T00:02:46.540Z,43.07
2023-09-27T00:05:14.528Z,42.94
2023-09-27T00:07:42.401Z,42.98
2023-09-27T00:10:11.203Z,43.04
2023-09-27T00:12:39.502Z,43.03
2023-09-27T00:15:09.126Z,43.02
2023-09-27T00:17:36.763Z,43.04
2023-09-27T00:20:04.935Z,42.72
2023-09-27T00:22:32.510Z,42.73
2023-09-27T00:25:00.605Z,42.74
2023-09-27T00:27:28.432Z,42.67
2023-09-27T00:29:57.343Z,42.53
2023-09-27T00:32:25.514Z,42.55
2023-09-27T00:34:53.058Z,42.53
2023-09-27T00:37:23.734Z,42.34
2023-09-27T00:39:51.835Z,42.31
2023-09-27T00:42:24.599Z,42.38
2023-09-27T00:44:52.456Z,42.39
2023-09-27T00:47:19.948Z,42.17
2023-09-27T00:49:47.571Z,42.11
2023-09-27T00:52:16.555Z,42.26
2023-09-27T00:54:44.878Z,42.39
2023-09-27T00:57:12.536Z,42.35
2023-09-27T00:59:40.989Z,42.25
2023-09-27T01:02:08.546Z,42.07
2023-09-27T01:04:36.056Z,42.08
2023-09-27T01:07:03.947Z,42.15
2023-09-27T01:09:32.847Z,42.16
2023-09-27T01:12:00.332Z,42.20
2023-09-27T01:14:28.366Z,42.21
2023-09-27T01:16:55.952Z,42.16
2023-09-27T01:19:23.575Z,42.05
2023-09-27T01:21:51.334Z,41.96
2023-09-27T01:24:19.168Z,41.98
2023-09-27T01:26:47.808Z,41.94
2023-09-27T01:29:15.607Z,41.88
2023-09-27T01:31:43.339Z,41.79
2023-09-27T01:34:14.426Z,41.92
2023-09-27T01:36:43.917Z,41.84
2023-09-27T01:39:11.454Z,42.00
2023-09-27T01:41:38.941Z,41.71
2023-09-27T01:44:06.891Z,41.76
2023-09-27T01:46:34.484Z,41.72
2023-09-27T01:49:01.967Z,41.78
2023-09-27T01:51:30.349Z,41.81
2023-09-27T01:53:57.833Z,41.82
2023-09-27T01:56:25.432Z,41.87
2023-09-27T01:58:53.482Z,41.68
2023-09-27T02:01:21.288Z,41.86
2023-09-27T02:03:49.343Z,41.79
2023-09-27T02:06:16.937Z,41.69
2023-09-27T02:08:44.440Z,41.76
2023-09-27T02:11:13.940Z,41.80
2023-09-27T02:13:41.541Z,41.82
2023-09-27T02:16:09.856Z,41.85
2023-09-27T02:18:38.013Z,41.69
2023-09-27T02:21:05.824Z,41.72
2023-09-27T02:23:34.182Z,41.33
2023-09-27T02:26:01.730Z,41.48
2023-09-27T02:28:29.472Z,41.53
2023-09-27T02:30:58.005Z,41.46
2023-09-27T02:33:27.822Z,41.64
2023-09-27T02:35:56.294Z,41.60
2023-09-27T02:38:23.876Z,41.60
2023-09-27T02:40:51.427Z,41.60
2023-09-27T02:43:19.226Z,41.51
2023-09-27T02:45:46.926Z,41.51
2023-09-27T02:48:14.965Z,41.65
2023-09-27T02:50:51.263Z,41.64
2023-09-27T02:53:18.893Z,41.51
2023-09-27T02:55:46.734Z,41.54
2023-09-27T02:58:14.315Z,41.50
2023-09-27T03:00:42.253Z,41.69
2023-09-27T03:03:11.288Z,41.45
2023-09-27T03:05:40.059Z,41.71
2023-09-27T03:08:09.123Z,41.61
2023-09-27T03:10:40.135Z,41.66
2023-09-27T03:13:09.448Z,41.75
2023-09-27T03:15:37.608Z,41.67
2023-09-27T03:18:05.332Z,41.44
2023-09-27T03:20:33.712Z,41.56
2023-09-27T03:23:01.716Z,41.61
2023-09-27T03:25:29.431Z,41.48
2023-09-27T03:27:56.961Z,41.58
2023-09-27T03:30:25.113Z,41.45
2023-09-27T03:32:52.797Z,41.71
2023-09-27T03:35:20.689Z,41.48
2023-09-27T03:37:48.613Z,41.57
2023-09-27T03:40:16.632Z,41.72
2023-09-27T03:42:45.980Z,41.71
2023-09-27T03:45:15.761Z,41.79
2023-09-27T03:47:47.054Z,41.77
2023-09-27T03:50:16.117Z,41.50
2023-09-27T03:52:44.931Z,41.61
2023-09-27T03:55:12.725Z,41.58
2023-09-27T03:57:41.165Z,41.43
2023-09-27T04:00:15.346Z,41.54
2023-09-27T04:02:43.696Z,41.80
2023-09-27T04:05:12.286Z,41.81
2023-09-27T04:07:40.803Z,41.85
2023-09-27T04:10:09.240Z,42.06
2023-09-27T04:12:37.468Z,41.95
2023-09-27T04:15:09.780Z,41.74
2023-09-27T04:17:38.735Z,41.65
2023-09-27T04:20:12.573Z,41.79
2023-09-27T04:22:40.468Z,41.78
2023-09-27T04:25:08.348Z,41.80
2023-09-27T04:27:35.911Z,41.75
2023-09-27T04:30:04.827Z,41.87
2023-09-27T04:32:32.403Z,41.95
2023-09-27T04:34:59.963Z,41.78
2023-09-27T04:37:27.955Z,41.98
2023-09-27T04:39:55.539Z,41.99
2023-09-27T04:42:23.086Z,41.68
2023-09-27T04:44:51.213Z,41.60
2023-09-27T04:47:18.724Z,41.65
2023-09-27T04:49:46.220Z,41.91
2023-09-27T04:52:14.064Z,41.93
2023-09-27T04:54:41.573Z,41.89
2023-09-27T04:57:09.209Z,41.91
2023-09-27T04:59:38.595Z,41.75
2023-09-27T05:02:06.494Z,41.74
2023-09-27T05:04:34.051Z,41.57
2023-09-27T05:07:01.819Z,41.43
2023-09-27T05:09:30.194Z,41.71
2023-09-27T05:11:57.750Z,41.66
2023-09-27T05:14:25.587Z,41.58
2023-09-27T05:16:53.142Z,41.41
2023-09-27T05:19:20.653Z,41.58
2023-09-27T05:21:48.769Z,41.64
2023-09-27T05:24:16.328Z,41.62
2023-09-27T05:26:43.794Z,41.33
2023-09-27T05:29:15.169Z,41.47
2023-09-27T05:31:43.959Z,41.61
2023-09-27T05:34:11.830Z,41.48
2023-09-27T05:36:41.678Z,41.21
2023-09-27T05:39:10.472Z,41.36
2023-09-27T05:41:38.302Z,41.47
2023-09-27T05:44:06.206Z,41.58
2023-09-27T05:46:34.783Z,41.52
2023-09-27T05:49:09.365Z,41.46
2023-09-27T05:51:37.130Z,41.38
2023-09-27T05:54:06.925Z,41.35
2023-09-27T05:56:34.462Z,41.33
2023-09-27T05:59:02.881Z,41.30
2023-09-27T06:01:33.087Z,41.28
2023-09-27T06:04:01.415Z,41.26
2023-09-27T06:06:30.374Z,41.29
2023-09-27T06:08:57.858Z,41.35
2023-09-27T06:11:26.113Z,41.39
2023-09-27T06:13:53.788Z,41.36
2023-09-27T06:16:22.879Z,41.43
2023-09-27T06:18:50.896Z,41.41
2023-09-27T06:21:18.472Z,41.39
2023-09-27T06:23:46.184Z,41.44
2023-09-27T06:26:14.059Z,41.46
2023-09-27T06:28:41.574Z,41.46
2023-09-27T06:31:09.165Z,41.44
2023-09-27T06:33:40.453Z,41.50
2023-09-27T06:36:09.192Z,41.48
2023-09-27T06:38:38.146Z,41.49
2023-09-27T06:41:05.775Z,41.50
2023-09-27T06:43:33.292Z,41.54
2023-09-27T06:46:02.738Z,41.57
2023-09-27T06:48:30.712Z,41.58
2023-09-27T06:50:58.308Z,41.59
2023-09-27T06:53:29.939Z,41.63
2023-09-27T06:56:00.569Z,41.62
2023-09-27T06:58:28.830Z,41.64
2023-09-27T07:00:56.402Z,41.68
2023-09-27T07:03:29.169Z,41.72
2023-09-27T07:05:57.191Z,41.75
2023-09-27T07:08:24.846Z,41.87
2023-09-27T07:10:52.502Z,41.76
2023-09-27T07:13:20.281Z,41.81
2023-09-27T07:15:49.194Z,41.78
2023-09-27T07:18:16.846Z,41.66
2023-09-27T07:20:45.145Z,41.70
2023-09-27T07:23:16.504Z,41.83
2023-09-27T07:25:45.494Z,41.86
2023-09-27T07:28:13.832Z,41.89
2023-09-27T07:30:41.372Z,41.93
2023-09-27T07:33:13.203Z,41.98
2023-09-27T07:35:45.378Z,41.83
2023-09-27T07:38:13.147Z,41.92
2023-09-27T07:40:41.079Z,41.97
2023-09-27T07:43:08.531Z,42.11
2023-09-27T07:45:37.829Z,41.99
2023-09-27T07:48:06.840Z,41.93
2023-09-27T07:50:35.921Z,41.72
2023-09-27T07:53:12.709Z,41.75
2023-09-27T07:55:47.757Z,41.66
2023-09-27T07:58:15.198Z,41.67
2023-09-27T08:00:43.032Z,41.72
2023-09-27T08:03:12.207Z,41.65
2023-09-27T08:05:46.795Z,41.50
2023-09-27T08:08:17.704Z,41.58
2023-09-27T08:10:47.002Z,41.64
2023-09-27T08:13:16.081Z,41.62
2023-09-27T08:15:44.061Z,41.64
2023-09-27T08:18:11.729Z,41.49
2023-09-27T08:20:39.808Z,41.53
2023-09-27T08:23:07.385Z,41.62
2023-09-27T08:25:34.991Z,41.64
2023-09-27T08:28:03.481Z,41.64
2023-09-27T08:30:30.998Z,41.69
2023-09-27T08:32:58.581Z,41.59
2023-09-27T08:35:26.473Z,41.53
2023-09-27T08:37:54.027Z,41.61
2023-09-27T08:40:22.807Z,41.72
2023-09-27T08:42:52.263Z,41.57
2023-09-27T08:45:20.933Z,41.48
2023-09-27T08:47:49.771Z,41.42
2023-09-27T08:50:19.609Z,41.61
2023-09-27T08:52:50.881Z,41.71
2023-09-27T08:55:19.866Z,41.79
2023-09-27T08:57:52.349Z,41.69
2023-09-27T09:00:27.736Z,41.81
2023-09-27T09:03:00.439Z,41.76
2023-09-27T09:05:29.966Z,41.84
2023-09-27T09:07:58.294Z,41.90
2023-09-27T09:10:25.795Z,41.85
2023-09-27T09:12:53.574Z,41.95
2023-09-27T09:15:38.228Z,42.02
2023-09-27T09:18:10.350Z,41.97
2023-09-27T09:20:52.712Z,42.06
2023-09-27T09:23:32.371Z,42.07
2023-09-27T09:26:00.396Z,41.91
2023-09-27T09:28:28.400Z,41.88
2023-09-27T09:30:55.902Z,41.91
2023-09-27T09:33:26.098Z,41.92
2023-09-27T09:35:57.334Z,41.92
2023-09-27T09:38:27.017Z,41.91
2023-09-27T09:40:59.176Z,41.94
2023-09-27T09:43:33.193Z,41.94
2023-09-27T09:46:02.567Z,41.91
2023-09-27T09:48:31.403Z,41.96
2023-09-27T09:51:04.419Z,41.68
2023-09-27T09:53:32.256Z,41.54
2023-09-27T09:58:37.302Z,41.32
2023-09-27T10:01:05.145Z,41.23
2023-09-27T10:03:36.537Z,41.30
2023-09-27T10:06:06.071Z,41.43
2023-09-27T10:08:39.836Z,41.43
2023-09-27T10:11:07.667Z,41.50
2023-09-27T10:13:36.585Z,41.38
2023-09-27T10:16:07.090Z,41.50
2023-09-27T10:18:38.745Z,41.59
2023-09-27T10:21:10.266Z,41.62
2023-09-27T10:23:47.053Z,41.11
2023-09-27T10:26:24.136Z,41.04
2023-09-27T10:29:04.116Z,40.72
2023-09-27T10:31:32.259Z,40.93
2023-09-27T10:34:00.518Z,40.97
2023-09-27T10:36:28.764Z,40.85
2023-09-27T10:38:56.236Z,40.80
2023-09-27T10:41:32.858Z,40.74
2023-09-27T10:44:03.543Z,40.51
2023-09-27T10:46:44.598Z,40.12
2023-09-27T10:49:12.191Z,40.08
2023-09-27T10:51:42.804Z,39.49
2023-09-27T10:54:10.581Z,39.27
2023-09-27T10:56:41.727Z,39.61
2023-09-27T10:59:09.597Z,39.62
2023-09-27T11:01:37.220Z,39.38
2023-09-27T11:04:05.609Z,39.04
2023-09-27T11:06:33.671Z,39.24
2023-09-27T11:09:13.362Z,39.46
2023-09-27T11:11:45.098Z,39.58
2023-09-27T11:14:12.601Z,39.25
2023-09-27T11:16:40.823Z,39.28
2023-09-27T11:19:08.966Z,39.28
2023-09-27T11:21:36.463Z,39.40
2023-09-27T11:24:08.340Z,39.42
2023-09-27T11:26:36.657Z,39.12
2023-09-27T11:29:05.502Z,39.17
2023-09-27T11:31:39.397Z,39.27
2023-09-27T11:34:17.136Z,39.35
2023-09-27T11:36:44.812Z,39.50
2023-09-27T11:39:14.879Z,39.36
2023-09-27T11:41:43.108Z,39.34
2023-09-27T11:44:26.967Z,39.35
2023-09-27T11:47:08.131Z,39.18
2023-09-27T11:49:36.036Z,39.05
2023-09-27T11:52:04.250Z,39.11
2023-09-27T11:54:31.851Z,39.20
2023-09-27T11:56:59.504Z,38.89
2023-09-27T11:59:27.480Z,38.84
2023-09-27T12:01:55.297Z,38.84
2023-09-27T12:04:23.243Z,39.26
2023-09-27T12:06:51.394Z,39.62
2023-09-27T12:09:19.110Z,39.55
2023-09-27T12:11:46.975Z,39.52
2023-09-27T12:14:14.518Z,40.05
2023-09-27T12:16:42.546Z,39.81
2023-09-27T12:19:10.610Z,39.63
2023-09-27T12:21:38.222Z,39.76
2023-09-27T12:24:06.854Z,39.44
2023-09-27T12:26:34.733Z,39.09
2023-09-27T12:29:04.145Z,39.17
2023-09-27T12:31:31.987Z,39.28
2023-09-27T12:33:59.783Z,39.13
2023-09-27T12:36:27.266Z,39.01
2023-09-27T12:38:55.010Z,38.78
2023-09-27T12:41:25.878Z,38.72
2023-09-27T12:43:53.505Z,38.65
2023-09-27T12:46:21.096Z,38.32
2023-09-27T12:48:49.015Z,37.96
2023-09-27T12:51:16.511Z,37.95
2023-09-27T12:53:45.093Z,37.87
2023-09-27T12:56:15.013Z,38.04
2023-09-27T12:58:45.460Z,38.09
2023-09-27T13:01:17.731Z,38.18
2023-09-27T13:03:45.613Z,38.23
2023-09-27T13:06:14.216Z,38.05
2023-09-27T13:08:41.810Z,38.19
2023-09-27T13:11:10.947Z,38.16
2023-09-27T13:13:38.736Z,38.22
2023-09-27T13:16:06.314Z,38.16
2023-09-27T13:18:33.908Z,37.77
2023-09-27T13:21:01.985Z,37.86
2023-09-27T13:23:29.540Z,38.00
2023-09-27T13:25:57.835Z,37.29
2023-09-27T13:28:25.609Z,37.42
2023-09-27T13:30:53.473Z,37.27
2023-09-27T13:33:21.228Z,37.10
2023-09-27T13:35:49.560Z,36.72
2023-09-27T13:38:17.842Z,36.11
2023-09-27T13:40:45.605Z,35.62
2023-09-27T13:43:13.540Z,35.23
2023-09-27T13:45:41.109Z,35.33
2023-09-27T13:48:08.791Z,35.46
2023-09-27T13:50:37.180Z,35.23
2023-09-27T13:53:05.048Z,35.33
2023-09-27T13:55:32.683Z,35.45
2023-09-27T13:58:00.480Z,35.47
2023-09-27T14:00:27.986Z,35.53
2023-09-27T14:02:56.189Z,35.64
2023-09-27T14:05:23.935Z,35.59
2023-09-27T14:07:51.574Z,35.55
2023-09-27T14:10:20.426Z,35.50
2023-09-27T14:12:48.074Z,35.84
2023-09-27T14:15:16.587Z,35.79
2023-09-27T14:17:44.703Z,35.65
2023-09-27T14:20:15.886Z,35.45
2023-09-27T14:22:45.188Z,34.96
2023-09-27T14:25:13.808Z,34.92
2023-09-27T14:27:41.602Z,35.22
2023-09-27T14:30:11.103Z,35.06
2023-09-27T14:32:40.606Z,35.06
2023-09-27T14:35:08.809Z,35.10
2023-09-27T14:37:36.782Z,35.02
2023-09-27T14:40:10.431Z,35.30
2023-09-27T14:42:38.929Z,35.33
2023-09-27T14:45:13.570Z,35.06
2023-09-27T14:47:53.729Z,35.47
2023-09-27T14:50:21.354Z,35.03
2023-09-27T14:52:49.183Z,35.48
2023-09-27T14:55:19.026Z,35.42
2023-09-27T14:57:46.969Z,35.28
2023-09-27T15:00:15.021Z,35.30
2023-09-27T15:02:44.132Z,35.64
2023-09-27T15:05:12.562Z,35.51
2023-09-27T15:07:40.430Z,35.65
2023-09-27T15:10:08.790Z,35.79
2023-09-27T15:12:36.309Z,35.71
2023-09-27T15:15:07.386Z,35.95
2023-09-27T15:17:41.663Z,36.21
2023-09-27T15:20:10.538Z,36.26
2023-09-27T15:22:39.783Z,36.39
2023-09-27T15:25:08.394Z,36.60
2023-09-27T15:27:36.174Z,36.66
2023-09-27T15:30:03.843Z,36.59
2023-09-27T15:32:32.672Z,36.54
2023-09-27T15:35:00.650Z,36.43
2023-09-27T15:37:28.147Z,36.43
2023-09-27T15:39:55.896Z,36.48
2023-09-27T15:42:23.622Z,36.37
2023-09-27T15:44:51.229Z,36.50
2023-09-27T15:47:18.779Z,36.88
2023-09-27T15:49:46.543Z,37.07
2023-09-27T15:52:14.211Z,37.26
2023-09-27T15:54:43.052Z,37.25
2023-09-27T15:57:10.931Z,37.64
2023-09-27T15:59:39.378Z,37.75
2023-09-27T16:02:06.892Z,37.86
2023-09-27T16:04:42.174Z,38.02
2023-09-27T16:07:18.857Z,38.11
2023-09-27T16:09:47.238Z,38.29
2023-09-27T16:12:14.841Z,38.44
2023-09-27T16:14:42.365Z,38.56
2023-09-27T16:17:10.207Z,38.70
2023-09-27T16:19:38.121Z,38.65
2023-09-27T16:22:05.710Z,38.65
2023-09-27T16:24:33.548Z,38.65
2023-09-27T16:27:01.367Z,38.66
2023-09-27T16:29:28.943Z,38.77
2023-09-27T16:31:58.543Z,38.76
2023-09-27T16:34:26.622Z,38.82
2023-09-27T16:36:54.241Z,38.89
2023-09-27T16:39:22.689Z,38.94
2023-09-27T16:41:51.041Z,39.00
2023-09-27T16:44:18.651Z,39.03
2023-09-27T16:46:47.269Z,39.08
2023-09-27T16:49:14.810Z,39.11
2023-09-27T16:51:42.401Z,39.14
2023-09-27T16:54:10.268Z,39.17
2023-09-27T16:56:37.855Z,39.18
2023-09-27T16:59:06.185Z,39.24
2023-09-27T17:01:35.252Z,39.29
2023-09-27T17:04:03.326Z,39.24
2023-09-27T17:06:31.173Z,39.28
2023-09-27T17:08:59.446Z,39.32
2023-09-27T17:11:28.493Z,39.33
2023-09-27T17:13:57.424Z,39.35
2023-09-27T17:16:30.591Z,39.35
2023-09-27T17:19:01.057Z,39.41
2023-09-27T17:21:30.400Z,39.51
2023-09-27T17:23:59.356Z,39.60
2023-09-27T17:26:27.687Z,39.71
2023-09-27T17:28:57.203Z,39.75
2023-09-27T17:31:26.701Z,39.83
2023-09-27T17:33:55.653Z,39.88
2023-09-27T17:36:24.491Z,39.80
2023-09-27T17:38:52.669Z,39.71
2023-09-27T17:41:21.119Z,39.66
2023-09-27T17:43:49.588Z,39.83
2023-09-27T17:46:30.853Z,39.91
2023-09-27T17:49:01.154Z,40.00
2023-09-27T17:51:31.069Z,39.93
2023-09-27T17:54:04.254Z,39.95
2023-09-27T17:56:33.575Z,40.01
2023-09-27T17:59:02.919Z,40.02
2023-09-27T18:01:32.249Z,39.84
2023-09-27T18:04:02.594Z,40.02
2023-09-27T18:06:31.877Z,40.04
2023-09-27T18:09:01.458Z,40.05
2023-09-27T18:11:29.974Z,40.05
2023-09-27T18:13:59.047Z,40.05
2023-09-27T18:16:29.556Z,40.08
2023-09-27T18:18:58.701Z,40.11
2023-09-27T18:21:29.445Z,40.09
2023-09-27T18:23:58.584Z,40.07
2023-09-27T18:26:27.493Z,40.10
2023-09-27T18:28:55.883Z,40.09
2023-09-27T18:31:28.577Z,40.13
2023-09-27T18:34:02.623Z,40.13
2023-09-27T18:36:31.828Z,40.14
2023-09-27T18:39:02.066Z,40.13
2023-09-27T18:41:33.440Z,40.14
2023-09-27T18:44:04.755Z,40.16
2023-09-27T18:46:38.432Z,40.13
2023-09-27T18:49:07.615Z,40.13
2023-09-27T18:51:36.812Z,40.14
2023-09-27T18:54:08.105Z,40.14
2023-09-27T18:56:40.253Z,40.14
2023-09-27T18:59:11.432Z,40.13
2023-09-27T19:01:42.539Z,40.09
2023-09-27T19:04:12.028Z,40.07
2023-09-27T19:06:42.994Z,40.02
2023-09-27T19:09:14.062Z,40.01
2023-09-27T19:11:44.742Z,39.99
2023-09-27T19:14:14.482Z,39.95
2023-09-27T19:16:43.931Z,39.93
2023-09-27T19:19:13.395Z,39.72
2023-09-27T19:21:43.042Z,39.79
2023-09-27T19:24:12.267Z,39.80
2023-09-27T19:26:41.719Z,39.77
2023-09-27T19:29:12.990Z,39.77
2023-09-27T19:31:42.123Z,39.74
2023-09-27T19:34:11.131Z,39.72
2023-09-27T19:36:39.923Z,39.65
2023-09-27T19:39:09.841Z,39.60
2023-09-27T19:41:39.810Z,39.58
2023-09-27T19:44:10.378Z,39.60
2023-09-27T19:46:39.386Z,39.60
2023-09-27T19:49:08.881Z,39.63
2023-09-27T19:51:38.695Z,39.67
2023-09-27T19:54:08.334Z,39.67
2023-09-27T19:56:37.493Z,39.68
2023-09-27T19:59:07.688Z,39.70
2023-09-27T20:01:35.844Z,39.66
2023-09-27T20:04:05.167Z,39.75
2023-09-27T20:06:38.034Z,39.58
2023-09-27T20:09:09.787Z,39.57
2023-09-27T20:11:38.663Z,39.58
2023-09-27T20:14:06.975Z,39.38
2023-09-27T20:16:35.210Z,39.37
2023-09-27T20:19:05.459Z,39.39
2023-09-27T20:21:36.155Z,39.35
2023-09-27T20:24:04.220Z,39.38
2023-09-27T20:26:32.364Z,39.19
2023-09-27T20:29:00.533Z,39.38
2023-09-27T20:31:28.520Z,39.46
2023-09-27T20:33:56.192Z,39.50
2023-09-27T20:36:24.107Z,39.49
2023-09-27T20:38:52.000Z,39.51
2023-09-27T20:41:21.108Z,39.51
2023-09-27T20:43:49.306Z,39.47
2023-09-27T20:46:16.985Z,39.47
2023-09-27T20:48:44.565Z,39.45
2023-09-27T20:51:12.421Z,39.58
2023-09-27T20:53:39.897Z,39.68
2023-09-27T20:56:08.005Z,39.67
2023-09-27T20:58:36.390Z,39.70
2023-09-27T21:01:08.362Z,39.69
2023-09-27T21:03:37.634Z,39.83
2023-09-27T21:06:06.083Z,39.94
2023-09-27T21:08:33.688Z,39.98
2023-09-27T21:11:01.721Z,39.83
2023-09-27T21:13:29.264Z,39.58
2023-09-27T21:15:56.856Z,39.91
2023-09-27T21:18:26.443Z,39.96
2023-09-27T21:20:54.128Z,40.00
2023-09-27T21:23:21.601Z,40.13
2023-09-27T21:25:49.391Z,40.01
2023-09-27T21:28:16.890Z,40.09
2023-09-27T21:30:44.349Z,40.13
2023-09-27T21:33:12.244Z,40.19
2023-09-27T21:35:39.867Z,40.30
2023-09-27T21:38:07.796Z,40.25
2023-09-27T21:40:35.977Z,40.33
2023-09-27T21:43:03.595Z,40.21
2023-09-27T21:45:32.187Z,40.37
2023-09-27T21:48:00.063Z,40.42
2023-09-27T21:50:27.892Z,40.56
2023-09-27T21:52:55.409Z,40.43
2023-09-27T21:55:23.473Z,40.32
2023-09-27T21:57:56.684Z,40.51
2023-09-27T22:00:29.900Z,40.47
2023-09-27T22:03:00.778Z,40.25
2023-09-27T22:05:29.036Z,40.25
2023-09-27T22:07:56.629Z,40.33
2023-09-27T22:10:28.399Z,40.27
2023-09-27T22:12:55.965Z,40.44
2023-09-27T22:15:34.506Z,40.49
2023-09-27T22:18:02.277Z,40.58
2023-09-27T22:20:31.038Z,40.47
2023-09-27T22:23:01.437Z,40.65
2023-09-27T22:25:29.074Z,40.50
2023-09-27T22:27:58.565Z,40.45
2023-09-27T22:30:26.093Z,40.41
2023-09-27T22:32:53.633Z,40.44
2023-09-27T22:35:28.263Z,40.38
2023-09-27T22:37:58.628Z,40.41
2023-09-27T22:40:26.408Z,40.45
2023-09-27T22:42:53.939Z,40.30
2023-09-27T22:45:32.599Z,40.41
2023-09-27T22:48:00.505Z,40.39
2023-09-27T22:50:31.684Z,40.41
2023-09-27T22:52:59.421Z,40.23
2023-09-27T22:55:29.965Z,40.41
2023-09-27T22:57:57.804Z,40.26
2023-09-27T23:00:26.337Z,40.52
2023-09-27T23:02:57.159Z,40.43
2023-09-27T23:05:34.106Z,40.49
2023-09-27T23:08:10.579Z,40.43
2023-09-27T23:10:39.095Z,40.33
2023-09-27T23:13:07.194Z,40.43
2023-09-27T23:15:43.808Z,40.42
2023-09-27T23:18:15.053Z,40.43
2023-09-27T23:20:43.555Z,40.30
2023-09-27T23:23:17.337Z,40.41
2023-09-27T23:25:44.978Z,40.31
2023-09-27T23:28:28.627Z,40.52
2023-09-27T23:31:09.582Z,40.46
2023-09-27T23:33:50.999Z,40.38
2023-09-27T23:36:25.329Z,40.13
2023-09-27T23:39:04.658Z,40.45
2023-09-27T23:41:32.441Z,40.44
2023-09-27T23:44:09.891Z,40.48
2023-09-27T23:46:41.190Z,40.44
2023-09-27T23:49:17.274Z,40.42
2023-09-27T23:51:45.042Z,40.47
2023-09-27T23:54:13.449Z,40.41
2023-09-27T23:56:40.952Z,40.38
2023-09-27T23:59:21.227Z,40.39
